Airfield :
LOGIN :

Register | Disclaimer

   EN    FR    IT 

 










Legend :    VFR   Marginal VFR   IFR   Intensive IFR   Very Intensive IFR
Visi :
Ceiling :
>= 8 km
>= 3000ft
5 to 8 km
1000 to 3000 ft
1500m to 5 km
500 to 1000 ft
800 to 1500m
200 to 500 ft
< 800m
< 200 ft
Symbols :   Thunderstorms  Fog  Heavy snow  Heavy precipitations  Wind > 20 kt
SIGMETs :     Misc.  Thunderstorms  Icing  Turbulence  Mountain Waves  Volcanic Ashes







- Airport Elevation : 1411 ft
- IATA code : GVA


LSGG - Genève Cointrin

CURRENT METAR :
  • 100120Z AUTO 08007KT 360V140 9999 -RA BKN031 07/03 Q1023 NOSIG

EXPIRED METARs :
  • 100050Z AUTO 27004KT 250V340 9999 RA BKN029 07/03 Q1023 NOSIG
  • 100020Z AUTO 25005KT 150V330 9999 RA FEW027 BKN031 08/03 Q1022 NOSIG
  • 092350Z AUTO VRB03KT 9999 -RA BKN032 08/03 Q1022 NOSIG
  • 092320Z AUTO 14006KT 100V170 9999 BKN032 08/02 Q1021 NOSIG

TAF TAF LSGG
Valid from the 10 at 00:00 until the 11 at 06:00 UTC


092325Z 1000/1106 24005KT 9999 FEW015 SCT030 BKN050 TX06/1015Z TN05/1006Z TNM00/1106Z
PROB30
TEMPO 1000/1021 SHRA
TEMPO 1006/1018 SCT040 SCT060
ATIS : +41 22 417 40 81
No reported NOTAMs for that airfield.



MET'MAP, your aeronautical weather chart ! - Copyright ORBIFLY December 2007 - Disclaimer

ORBIFLY MET'MAP TEAM :

Programming & Development : Alexandra Zaïnal
Concept & Development : Baudouin d'Aumeries
Co-Development & Prog : Marc-Olivier Méhu
Technical & hardware support : Manuel Goepfert

Contact : metmap@orbifly.com




SOURCES & CREDITS :

   NOAA